sensor_id;sensor_type;location;lat;lon;timestamp;P1;durP1;ratioP1;P2;durP2;ratioP2
61962;SDS011;47927;42.646;23.096;2023-02-28T00:00:34;2.92;;;0.90;;
61962;SDS011;47927;42.646;23.096;2023-02-28T00:03:01;3.75;;;0.80;;
61962;SDS011;47927;42.646;23.096;2023-02-28T00:05:27;3.55;;;0.90;;
61962;SDS011;47927;42.646;23.096;2023-02-28T00:07:53;5.45;;;1.00;;
61962;SDS011;47927;42.646;23.096;2023-02-28T00:10:31;2.33;;;0.82;;
61962;SDS011;47927;42.646;23.096;2023-02-28T00:13:04;2.55;;;0.73;;
61962;SDS011;47927;42.646;23.096;2023-02-28T00:15:31;1.70;;;0.60;;
61962;SDS011;47927;42.646;23.096;2023-02-28T00:17:57;1.58;;;0.80;;
61962;SDS011;47927;42.646;23.096;2023-02-28T00:20:23;3.28;;;0.98;;
61962;SDS011;47927;42.646;23.096;2023-02-28T00:22:50;4.88;;;1.00;;
61962;SDS011;47927;42.646;23.096;2023-02-28T00:25:18;4.57;;;0.95;;
61962;SDS011;47927;42.646;23.096;2023-02-28T00:27:46;3.67;;;1.15;;
61962;SDS011;47927;42.646;23.096;2023-02-28T00:30:13;7.80;;;1.20;;
61962;SDS011;47927;42.646;23.096;2023-02-28T00:32:40;1.92;;;0.65;;
61962;SDS011;47927;42.646;23.096;2023-02-28T00:35:07;4.30;;;0.90;;
61962;SDS011;47927;42.646;23.096;2023-02-28T00:37:33;3.42;;;1.20;;
61962;SDS011;47927;42.646;23.096;2023-02-28T00:39:59;3.22;;;0.82;;
61962;SDS011;47927;42.646;23.096;2023-02-28T00:42:25;5.30;;;1.15;;
61962;SDS011;47927;42.646;23.096;2023-02-28T00:44:51;12.15;;;1.90;;
61962;SDS011;47927;42.646;23.096;2023-02-28T00:47:17;10.90;;;1.70;;
61962;SDS011;47927;42.646;23.096;2023-02-28T00:49:42;4.20;;;1.15;;
61962;SDS011;47927;42.646;23.096;2023-02-28T00:52:08;2.88;;;1.17;;
61962;SDS011;47927;42.646;23.096;2023-02-28T00:54:34;4.03;;;1.17;;
61962;SDS011;47927;42.646;23.096;2023-02-28T00:56:59;3.85;;;1.10;;
61962;SDS011;47927;42.646;23.096;2023-02-28T00:59:25;7.07;;;1.33;;
61962;SDS011;47927;42.646;23.096;2023-02-28T01:01:50;3.72;;;1.33;;
61962;SDS011;47927;42.646;23.096;2023-02-28T01:04:16;4.07;;;1.02;;
61962;SDS011;47927;42.646;23.096;2023-02-28T01:06:42;3.70;;;1.05;;
61962;SDS011;47927;42.646;23.096;2023-02-28T01:09:09;7.30;;;1.38;;
61962;SDS011;47927;42.646;23.096;2023-02-28T01:11:35;7.43;;;1.48;;
61962;SDS011;47927;42.646;23.096;2023-02-28T01:14:01;8.32;;;1.40;;
61962;SDS011;47927;42.646;23.096;2023-02-28T01:16:27;3.25;;;1.20;;
61962;SDS011;47927;42.646;23.096;2023-02-28T01:18:53;5.25;;;1.92;;
61962;SDS011;47927;42.646;23.096;2023-02-28T01:21:19;6.07;;;1.58;;
61962;SDS011;47927;42.646;23.096;2023-02-28T01:23:46;10.40;;;1.50;;
61962;SDS011;47927;42.646;23.096;2023-02-28T01:26:21;4.35;;;1.27;;
61962;SDS011;47927;42.646;23.096;2023-02-28T01:28:48;6.15;;;1.40;;
61962;SDS011;47927;42.646;23.096;2023-02-28T01:31:14;6.35;;;1.88;;
61962;SDS011;47927;42.646;23.096;2023-02-28T01:33:40;7.90;;;1.95;;
61962;SDS011;47927;42.646;23.096;2023-02-28T01:36:07;4.38;;;1.40;;
61962;SDS011;47927;42.646;23.096;2023-02-28T01:38:34;5.07;;;1.70;;
61962;SDS011;47927;42.646;23.096;2023-02-28T01:41:00;8.43;;;2.40;;
61962;SDS011;47927;42.646;23.096;2023-02-28T01:43:30;9.75;;;2.20;;
61962;SDS011;47927;42.646;23.096;2023-02-28T01:45:57;6.85;;;1.50;;
61962;SDS011;47927;42.646;23.096;2023-02-28T01:48:27;7.95;;;1.88;;
61962;SDS011;47927;42.646;23.096;2023-02-28T01:50:58;8.18;;;2.20;;
61962;SDS011;47927;42.646;23.096;2023-02-28T01:53:33;6.35;;;1.88;;
61962;SDS011;47927;42.646;23.096;2023-02-28T01:56:05;5.53;;;1.58;;
61962;SDS011;47927;42.646;23.096;2023-02-28T01:58:34;5.25;;;1.75;;
61962;SDS011;47927;42.646;23.096;2023-02-28T02:01:01;4.43;;;1.95;;
61962;SDS011;47927;42.646;23.096;2023-02-28T02:03:28;13.73;;;2.40;;
61962;SDS011;47927;42.646;23.096;2023-02-28T02:05:55;17.65;;;2.25;;
61962;SDS011;47927;42.646;23.096;2023-02-28T02:08:22;38.53;;;3.75;;
61962;SDS011;47927;42.646;23.096;2023-02-28T02:11:00;18.00;;;5.13;;
61962;SDS011;47927;42.646;23.096;2023-02-28T02:25:20;37.38;;;4.07;;
61962;SDS011;47927;42.646;23.096;2023-02-28T02:28:14;23.85;;;4.15;;
61962;SDS011;47927;42.646;23.096;2023-02-28T02:36:26;43.97;;;4.38;;
61962;SDS011;47927;42.646;23.096;2023-02-28T02:41:35;56.53;;;6.10;;
61962;SDS011;47927;42.646;23.096;2023-02-28T02:44:52;59.95;;;5.93;;
61962;SDS011;47927;42.646;23.096;2023-02-28T02:47:05;53.40;;;5.15;;
61962;SDS011;47927;42.646;23.096;2023-02-28T02:49:35;62.92;;;5.57;;
61962;SDS011;47927;42.646;23.096;2023-02-28T02:52:05;38.03;;;6.37;;
61962;SDS011;47927;42.646;23.096;2023-02-28T02:54:37;45.63;;;5.28;;
61962;SDS011;47927;42.646;23.096;2023-02-28T02:57:40;28.27;;;3.88;;
61962;SDS011;47927;42.646;23.096;2023-02-28T03:00:03;18.35;;;2.83;;
61962;SDS011;47927;42.646;23.096;2023-02-28T03:02:33;15.90;;;3.13;;
61962;SDS011;47927;42.646;23.096;2023-02-28T03:05:02;22.58;;;4.13;;
61962;SDS011;47927;42.646;23.096;2023-02-28T03:07:31;39.00;;;3.83;;
61962;SDS011;47927;42.646;23.096;2023-02-28T03:09:57;26.98;;;3.38;;
61962;SDS011;47927;42.646;23.096;2023-02-28T03:12:25;11.18;;;3.50;;
61962;SDS011;47927;42.646;23.096;2023-02-28T03:20:04;87.10;;;5.67;;
61962;SDS011;47927;42.646;23.096;2023-02-28T03:22:50;59.58;;;4.22;;
61962;SDS011;47927;42.646;23.096;2023-02-28T03:31:06;49.33;;;2.63;;
61962;SDS011;47927;42.646;23.096;2023-02-28T03:33:50;48.60;;;2.75;;
61962;SDS011;47927;42.646;23.096;2023-02-28T03:36:21;47.78;;;2.53;;
61962;SDS011;47927;42.646;23.096;2023-02-28T03:39:16;38.83;;;2.90;;
61962;SDS011;47927;42.646;23.096;2023-02-28T03:41:45;17.60;;;2.17;;
61962;SDS011;47927;42.646;23.096;2023-02-28T03:44:19;19.98;;;2.42;;
61962;SDS011;47927;42.646;23.096;2023-02-28T03:47:13;17.02;;;2.42;;
61962;SDS011;47927;42.646;23.096;2023-02-28T03:49:44;23.58;;;2.15;;
61962;SDS011;47927;42.646;23.096;2023-02-28T03:52:16;28.17;;;2.50;;
61962;SDS011;47927;42.646;23.096;2023-02-28T03:54:45;17.55;;;2.20;;
61962;SDS011;47927;42.646;23.096;2023-02-28T03:59:56;11.52;;;2.08;;
61962;SDS011;47927;42.646;23.096;2023-02-28T04:02:37;19.77;;;2.58;;
61962;SDS011;47927;42.646;23.096;2023-02-28T04:05:04;14.77;;;3.00;;
61962;SDS011;47927;42.646;23.096;2023-02-28T04:07:31;15.00;;;2.90;;
61962;SDS011;47927;42.646;23.096;2023-02-28T04:09:57;24.13;;;2.83;;
61962;SDS011;47927;42.646;23.096;2023-02-28T04:12:23;35.15;;;2.78;;
61962;SDS011;47927;42.646;23.096;2023-02-28T04:14:49;35.70;;;2.90;;
61962;SDS011;47927;42.646;23.096;2023-02-28T04:17:15;33.78;;;3.05;;
61962;SDS011;47927;42.646;23.096;2023-02-28T04:19:41;31.98;;;3.22;;
61962;SDS011;47927;42.646;23.096;2023-02-28T04:22:07;31.50;;;3.78;;
61962;SDS011;47927;42.646;23.096;2023-02-28T04:24:34;39.40;;;3.22;;
61962;SDS011;47927;42.646;23.096;2023-02-28T04:27:00;31.33;;;2.72;;
61962;SDS011;47927;42.646;23.096;2023-02-28T04:29:27;31.52;;;3.28;;
61962;SDS011;47927;42.646;23.096;2023-02-28T04:31:54;28.40;;;3.08;;
61962;SDS011;47927;42.646;23.096;2023-02-28T04:34:23;17.05;;;1.95;;
61962;SDS011;47927;42.646;23.096;2023-02-28T04:36:49;27.88;;;2.65;;
61962;SDS011;47927;42.646;23.096;2023-02-28T04:39:16;14.65;;;2.60;;
61962;SDS011;47927;42.646;23.096;2023-02-28T04:41:43;24.33;;;2.38;;
61962;SDS011;47927;42.646;23.096;2023-02-28T04:44:12;39.83;;;3.50;;
61962;SDS011;47927;42.646;23.096;2023-02-28T04:46:38;23.23;;;3.05;;
61962;SDS011;47927;42.646;23.096;2023-02-28T04:49:04;28.95;;;2.85;;
61962;SDS011;47927;42.646;23.096;2023-02-28T04:51:29;25.77;;;3.05;;
61962;SDS011;47927;42.646;23.096;2023-02-28T04:53:55;32.00;;;3.28;;
61962;SDS011;47927;42.646;23.096;2023-02-28T04:56:20;24.17;;;3.10;;
61962;SDS011;47927;42.646;23.096;2023-02-28T04:58:46;42.03;;;4.03;;
61962;SDS011;47927;42.646;23.096;2023-02-28T05:01:17;36.17;;;4.10;;
61962;SDS011;47927;42.646;23.096;2023-02-28T05:03:45;25.35;;;4.32;;
61962;SDS011;47927;42.646;23.096;2023-02-28T05:06:11;39.20;;;4.18;;
61962;SDS011;47927;42.646;23.096;2023-02-28T05:08:38;30.88;;;4.18;;
61962;SDS011;47927;42.646;23.096;2023-02-28T05:11:04;43.00;;;4.13;;
61962;SDS011;47927;42.646;23.096;2023-02-28T05:13:31;37.78;;;4.78;;
61962;SDS011;47927;42.646;23.096;2023-02-28T05:15:56;63.47;;;5.15;;
61962;SDS011;47927;42.646;23.096;2023-02-28T05:18:22;61.00;;;4.50;;
61962;SDS011;47927;42.646;23.096;2023-02-28T05:20:47;77.70;;;4.75;;
61962;SDS011;47927;42.646;23.096;2023-02-28T05:23:13;49.88;;;3.80;;
61962;SDS011;47927;42.646;23.096;2023-02-28T05:25:48;59.40;;;4.18;;
61962;SDS011;47927;42.646;23.096;2023-02-28T05:28:14;88.15;;;4.90;;
61962;SDS011;47927;42.646;23.096;2023-02-28T05:30:40;62.53;;;7.38;;
61962;SDS011;47927;42.646;23.096;2023-02-28T05:33:05;30.67;;;4.43;;
61962;SDS011;47927;42.646;23.096;2023-02-28T05:35:31;50.15;;;3.88;;
61962;SDS011;47927;42.646;23.096;2023-02-28T05:37:57;36.45;;;3.72;;
61962;SDS011;47927;42.646;23.096;2023-02-28T05:40:22;46.60;;;4.05;;
61962;SDS011;47927;42.646;23.096;2023-02-28T05:42:49;30.25;;;3.47;;
61962;SDS011;47927;42.646;23.096;2023-02-28T05:45:16;34.22;;;4.47;;
61962;SDS011;47927;42.646;23.096;2023-02-28T05:47:42;23.65;;;3.35;;
61962;SDS011;47927;42.646;23.096;2023-02-28T05:50:08;42.65;;;3.58;;
61962;SDS011;47927;42.646;23.096;2023-02-28T05:52:35;38.65;;;4.30;;
61962;SDS011;47927;42.646;23.096;2023-02-28T05:55:01;41.45;;;4.03;;
61962;SDS011;47927;42.646;23.096;2023-02-28T05:57:27;46.60;;;3.70;;
61962;SDS011;47927;42.646;23.096;2023-02-28T05:59:52;37.22;;;4.78;;
61962;SDS011;47927;42.646;23.096;2023-02-28T06:02:18;40.55;;;4.57;;
61962;SDS011;47927;42.646;23.096;2023-02-28T06:04:43;73.22;;;5.38;;
61962;SDS011;47927;42.646;23.096;2023-02-28T06:07:10;76.07;;;4.60;;
61962;SDS011;47927;42.646;23.096;2023-02-28T06:09:35;71.70;;;5.07;;
61962;SDS011;47927;42.646;23.096;2023-02-28T06:12:01;46.15;;;4.40;;
61962;SDS011;47927;42.646;23.096;2023-02-28T06:14:30;52.05;;;4.82;;
61962;SDS011;47927;42.646;23.096;2023-02-28T06:16:57;45.03;;;4.22;;
61962;SDS011;47927;42.646;23.096;2023-02-28T06:19:24;28.17;;;4.80;;
61962;SDS011;47927;42.646;23.096;2023-02-28T06:21:54;25.40;;;4.32;;
61962;SDS011;47927;42.646;23.096;2023-02-28T06:24:20;52.83;;;4.70;;
61962;SDS011;47927;42.646;23.096;2023-02-28T06:26:46;27.63;;;3.88;;
61962;SDS011;47927;42.646;23.096;2023-02-28T06:29:12;36.38;;;4.90;;
61962;SDS011;47927;42.646;23.096;2023-02-28T06:31:41;35.95;;;5.45;;
61962;SDS011;47927;42.646;23.096;2023-02-28T06:34:07;30.83;;;5.30;;
61962;SDS011;47927;42.646;23.096;2023-02-28T06:36:32;26.95;;;5.38;;
61962;SDS011;47927;42.646;23.096;2023-02-28T06:38:58;24.35;;;5.28;;
61962;SDS011;47927;42.646;23.096;2023-02-28T06:41:24;19.20;;;5.55;;
61962;SDS011;47927;42.646;23.096;2023-02-28T06:43:51;32.53;;;5.60;;
61962;SDS011;47927;42.646;23.096;2023-02-28T06:46:17;31.88;;;7.47;;
61962;SDS011;47927;42.646;23.096;2023-02-28T06:48:43;35.13;;;6.72;;
61962;SDS011;47927;42.646;23.096;2023-02-28T06:51:11;19.48;;;6.00;;
61962;SDS011;47927;42.646;23.096;2023-02-28T06:53:39;29.20;;;6.55;;
61962;SDS011;47927;42.646;23.096;2023-02-28T06:56:06;19.33;;;6.07;;
61962;SDS011;47927;42.646;23.096;2023-02-28T06:58:33;22.30;;;5.25;;
61962;SDS011;47927;42.646;23.096;2023-02-28T09:49:00;24.20;;;10.50;;
61962;SDS011;47927;42.646;23.096;2023-02-28T09:54:10;24.85;;;10.75;;
61962;SDS011;47927;42.646;23.096;2023-02-28T09:56:44;24.92;;;10.68;;
61962;SDS011;47927;42.646;23.096;2023-02-28T09:59:29;27.95;;;10.70;;
61962;SDS011;47927;42.646;23.096;2023-02-28T10:09:57;24.63;;;10.23;;
61962;SDS011;47927;42.646;23.096;2023-02-28T10:12:45;24.30;;;11.13;;
61962;SDS011;47927;42.646;23.096;2023-02-28T10:15:15;22.92;;;10.43;;
61962;SDS011;47927;42.646;23.096;2023-02-28T10:17:43;17.60;;;10.38;;
61962;SDS011;47927;42.646;23.096;2023-02-28T10:20:13;23.98;;;10.43;;
61962;SDS011;47927;42.646;23.096;2023-02-28T10:23:07;17.00;;;10.27;;
61962;SDS011;47927;42.646;23.096;2023-02-28T10:25:36;19.75;;;10.73;;
61962;SDS011;47927;42.646;23.096;2023-02-28T10:28:13;24.20;;;11.38;;
61962;SDS011;47927;42.646;23.096;2023-02-28T10:30:41;21.13;;;9.93;;
61962;SDS011;47927;42.646;23.096;2023-02-28T10:33:43;22.52;;;9.80;;
61962;SDS011;47927;42.646;23.096;2023-02-28T10:36:03;23.23;;;11.27;;
61962;SDS011;47927;42.646;23.096;2023-02-28T10:38:36;22.42;;;10.55;;
61962;SDS011;47927;42.646;23.096;2023-02-28T10:46:41;22.83;;;11.75;;
61962;SDS011;47927;42.646;23.096;2023-02-28T10:49:20;23.33;;;13.85;;
61962;SDS011;47927;42.646;23.096;2023-02-28T10:51:49;26.10;;;13.57;;
61962;SDS011;47927;42.646;23.096;2023-02-28T10:54:23;28.77;;;13.68;;
61962;SDS011;47927;42.646;23.096;2023-02-28T10:57:07;26.35;;;12.88;;
61962;SDS011;47927;42.646;23.096;2023-02-28T10:59:45;27.15;;;13.60;;
61962;SDS011;47927;42.646;23.096;2023-02-28T11:02:53;28.15;;;13.63;;
61962;SDS011;47927;42.646;23.096;2023-02-28T11:05:02;23.48;;;13.38;;
61962;SDS011;47927;42.646;23.096;2023-02-28T13:31:14;16.30;;;10.20;;
61962;SDS011;47927;42.646;23.096;2023-02-28T13:38:42;19.63;;;9.02;;
61962;SDS011;47927;42.646;23.096;2023-02-28T13:57:02;20.55;;;9.05;;
61962;SDS011;47927;42.646;23.096;2023-02-28T13:59:35;19.45;;;8.70;;
61962;SDS011;47927;42.646;23.096;2023-02-28T14:07:25;16.65;;;7.40;;
61962;SDS011;47927;42.646;23.096;2023-02-28T14:10:03;22.60;;;8.30;;
61962;SDS011;47927;42.646;23.096;2023-02-28T14:17:55;17.23;;;6.30;;
61962;SDS011;47927;42.646;23.096;2023-02-28T14:20:25;17.20;;;6.57;;
61962;SDS011;47927;42.646;23.096;2023-02-28T14:23:06;18.50;;;6.60;;
61962;SDS011;47927;42.646;23.096;2023-02-28T14:25:39;11.80;;;5.93;;
61962;SDS011;47927;42.646;23.096;2023-02-28T14:28:22;17.90;;;6.05;;
61962;SDS011;47927;42.646;23.096;2023-02-28T14:31:15;13.52;;;5.63;;
61962;SDS011;47927;42.646;23.096;2023-02-28T14:34:14;17.40;;;6.45;;
61962;SDS011;47927;42.646;23.096;2023-02-28T14:36:42;12.95;;;6.20;;
61962;SDS011;47927;42.646;23.096;2023-02-28T14:41:45;14.35;;;5.65;;
61962;SDS011;47927;42.646;23.096;2023-02-28T14:44:21;16.50;;;7.28;;
61962;SDS011;47927;42.646;23.096;2023-02-28T14:46:54;18.27;;;6.00;;
61962;SDS011;47927;42.646;23.096;2023-02-28T14:49:28;13.52;;;5.00;;
61962;SDS011;47927;42.646;23.096;2023-02-28T14:52:05;18.33;;;6.25;;
61962;SDS011;47927;42.646;23.096;2023-02-28T14:54:40;16.73;;;5.35;;
61962;SDS011;47927;42.646;23.096;2023-02-28T14:57:19;18.35;;;5.40;;
61962;SDS011;47927;42.646;23.096;2023-02-28T14:59:57;11.05;;;6.13;;
61962;SDS011;47927;42.646;23.096;2023-02-28T15:02:24;14.82;;;6.50;;
61962;SDS011;47927;42.646;23.096;2023-02-28T15:04:58;11.80;;;5.97;;
61962;SDS011;47927;42.646;23.096;2023-02-28T15:07:47;14.85;;;5.28;;
61962;SDS011;47927;42.646;23.096;2023-02-28T15:10:18;18.27;;;5.25;;
61962;SDS011;47927;42.646;23.096;2023-02-28T15:12:55;15.63;;;5.95;;
61962;SDS011;47927;42.646;23.096;2023-02-28T15:15:27;23.85;;;6.38;;
61962;SDS011;47927;42.646;23.096;2023-02-28T15:18:22;17.58;;;5.70;;
61962;SDS011;47927;42.646;23.096;2023-02-28T15:20:48;16.92;;;6.20;;
61962;SDS011;47927;42.646;23.096;2023-02-28T15:23:15;15.60;;;6.28;;
61962;SDS011;47927;42.646;23.096;2023-02-28T15:25:43;12.23;;;4.60;;
61962;SDS011;47927;42.646;23.096;2023-02-28T15:28:11;12.43;;;5.18;;
61962;SDS011;47927;42.646;23.096;2023-02-28T15:30:49;12.02;;;4.95;;
61962;SDS011;47927;42.646;23.096;2023-02-28T15:33:18;15.82;;;5.63;;
61962;SDS011;47927;42.646;23.096;2023-02-28T15:35:48;10.60;;;5.57;;
61962;SDS011;47927;42.646;23.096;2023-02-28T15:38:22;14.90;;;4.93;;
61962;SDS011;47927;42.646;23.096;2023-02-28T15:40:56;14.30;;;6.43;;
61962;SDS011;47927;42.646;23.096;2023-02-28T15:43:24;18.02;;;5.53;;
61962;SDS011;47927;42.646;23.096;2023-02-28T15:46:03;13.48;;;5.95;;
61962;SDS011;47927;42.646;23.096;2023-02-28T15:51:05;21.25;;;5.28;;
61962;SDS011;47927;42.646;23.096;2023-02-28T15:53:54;12.90;;;5.70;;
61962;SDS011;47927;42.646;23.096;2023-02-28T15:56:25;16.13;;;5.13;;
61962;SDS011;47927;42.646;23.096;2023-02-28T15:58:56;16.80;;;6.63;;
61962;SDS011;47927;42.646;23.096;2023-02-28T16:01:27;16.35;;;5.50;;
61962;SDS011;47927;42.646;23.096;2023-02-28T16:03:57;12.07;;;6.22;;
61962;SDS011;47927;42.646;23.096;2023-02-28T16:08:58;46.92;;;19.15;;
61962;SDS011;47927;42.646;23.096;2023-02-28T16:11:24;21.95;;;6.30;;
61962;SDS011;47927;42.646;23.096;2023-02-28T16:13:50;14.77;;;7.28;;
61962;SDS011;47927;42.646;23.096;2023-02-28T16:16:17;15.70;;;6.70;;
61962;SDS011;47927;42.646;23.096;2023-02-28T16:18:44;19.25;;;7.25;;
61962;SDS011;47927;42.646;23.096;2023-02-28T16:21:10;15.65;;;7.40;;
61962;SDS011;47927;42.646;23.096;2023-02-28T16:23:36;22.10;;;11.93;;
61962;SDS011;47927;42.646;23.096;2023-02-28T16:26:02;14.30;;;7.22;;
61962;SDS011;47927;42.646;23.096;2023-02-28T16:28:30;16.20;;;7.78;;
61962;SDS011;47927;42.646;23.096;2023-02-28T16:31:02;17.38;;;8.20;;
61962;SDS011;47927;42.646;23.096;2023-02-28T16:33:30;20.17;;;7.15;;
61962;SDS011;47927;42.646;23.096;2023-02-28T16:35:59;12.55;;;6.95;;
61962;SDS011;47927;42.646;23.096;2023-02-28T16:38:25;14.93;;;8.45;;
61962;SDS011;47927;42.646;23.096;2023-02-28T16:40:51;14.55;;;5.93;;
61962;SDS011;47927;42.646;23.096;2023-02-28T16:43:22;24.07;;;7.47;;
61962;SDS011;47927;42.646;23.096;2023-02-28T16:45:53;14.98;;;7.55;;
61962;SDS011;47927;42.646;23.096;2023-02-28T16:48:21;11.50;;;7.15;;
61962;SDS011;47927;42.646;23.096;2023-02-28T16:50:47;14.10;;;7.13;;
61962;SDS011;47927;42.646;23.096;2023-02-28T16:53:12;10.48;;;6.10;;
61962;SDS011;47927;42.646;23.096;2023-02-28T16:55:38;12.27;;;7.90;;
61962;SDS011;47927;42.646;23.096;2023-02-28T16:58:04;9.63;;;5.50;;
61962;SDS011;47927;42.646;23.096;2023-02-28T17:00:30;12.00;;;7.53;;
61962;SDS011;47927;42.646;23.096;2023-02-28T17:02:57;15.30;;;8.05;;
61962;SDS011;47927;42.646;23.096;2023-02-28T17:05:24;11.27;;;7.10;;
61962;SDS011;47927;42.646;23.096;2023-02-28T17:07:51;10.88;;;6.68;;
61962;SDS011;47927;42.646;23.096;2023-02-28T17:10:17;11.60;;;6.82;;
61962;SDS011;47927;42.646;23.096;2023-02-28T17:12:46;11.40;;;6.40;;
61962;SDS011;47927;42.646;23.096;2023-02-28T17:15:12;8.27;;;5.43;;
61962;SDS011;47927;42.646;23.096;2023-02-28T17:17:39;11.70;;;7.45;;
61962;SDS011;47927;42.646;23.096;2023-02-28T17:20:06;18.58;;;8.38;;
61962;SDS011;47927;42.646;23.096;2023-02-28T17:22:36;14.07;;;8.50;;
61962;SDS011;47927;42.646;23.096;2023-02-28T17:25:01;13.70;;;9.38;;
61962;SDS011;47927;42.646;23.096;2023-02-28T17:27:27;11.55;;;7.55;;
61962;SDS011;47927;42.646;23.096;2023-02-28T17:29:52;11.70;;;7.40;;
61962;SDS011;47927;42.646;23.096;2023-02-28T17:32:18;13.50;;;7.45;;
61962;SDS011;47927;42.646;23.096;2023-02-28T17:34:44;12.32;;;7.75;;
61962;SDS011;47927;42.646;23.096;2023-02-28T17:37:11;13.27;;;7.85;;
61962;SDS011;47927;42.646;23.096;2023-02-28T17:39:36;11.50;;;6.63;;
61962;SDS011;47927;42.646;23.096;2023-02-28T17:42:02;12.15;;;5.43;;
61962;SDS011;47927;42.646;23.096;2023-02-28T17:44:27;8.40;;;5.35;;
61962;SDS011;47927;42.646;23.096;2023-02-28T17:46:54;13.30;;;8.00;;
61962;SDS011;47927;42.646;23.096;2023-02-28T17:49:20;13.23;;;7.18;;
61962;SDS011;47927;42.646;23.096;2023-02-28T17:51:46;9.88;;;5.78;;
61962;SDS011;47927;42.646;23.096;2023-02-28T17:54:12;8.25;;;5.18;;
61962;SDS011;47927;42.646;23.096;2023-02-28T17:56:39;10.10;;;5.88;;
61962;SDS011;47927;42.646;23.096;2023-02-28T17:59:05;7.65;;;5.00;;
61962;SDS011;47927;42.646;23.096;2023-02-28T18:01:31;7.10;;;4.72;;
61962;SDS011;47927;42.646;23.096;2023-02-28T18:03:56;8.63;;;5.28;;
61962;SDS011;47927;42.646;23.096;2023-02-28T18:06:26;7.20;;;5.03;;
61962;SDS011;47927;42.646;23.096;2023-02-28T18:08:56;6.35;;;4.53;;
61962;SDS011;47927;42.646;23.096;2023-02-28T18:11:22;9.63;;;4.90;;
61962;SDS011;47927;42.646;23.096;2023-02-28T18:13:50;7.88;;;4.43;;
61962;SDS011;47927;42.646;23.096;2023-02-28T18:16:17;10.82;;;5.38;;
61962;SDS011;47927;42.646;23.096;2023-02-28T18:18:44;9.82;;;5.80;;
61962;SDS011;47927;42.646;23.096;2023-02-28T18:21:11;11.65;;;6.13;;
61962;SDS011;47927;42.646;23.096;2023-02-28T18:23:39;10.50;;;6.53;;
61962;SDS011;47927;42.646;23.096;2023-02-28T18:26:12;10.50;;;6.97;;
61962;SDS011;47927;42.646;23.096;2023-02-28T18:28:39;8.10;;;6.00;;
61962;SDS011;47927;42.646;23.096;2023-02-28T18:31:07;9.55;;;6.20;;
61962;SDS011;47927;42.646;23.096;2023-02-28T18:33:33;10.80;;;6.13;;
61962;SDS011;47927;42.646;23.096;2023-02-28T18:36:00;10.45;;;6.00;;
61962;SDS011;47927;42.646;23.096;2023-02-28T18:38:25;8.32;;;5.38;;
61962;SDS011;47927;42.646;23.096;2023-02-28T18:40:54;9.02;;;5.78;;
61962;SDS011;47927;42.646;23.096;2023-02-28T18:43:21;11.95;;;6.13;;
61962;SDS011;47927;42.646;23.096;2023-02-28T18:45:47;9.60;;;6.53;;
61962;SDS011;47927;42.646;23.096;2023-02-28T18:48:12;12.30;;;8.52;;
61962;SDS011;47927;42.646;23.096;2023-02-28T18:50:39;9.02;;;6.13;;
61962;SDS011;47927;42.646;23.096;2023-02-28T18:53:06;10.90;;;6.95;;
61962;SDS011;47927;42.646;23.096;2023-02-28T18:55:32;10.32;;;6.82;;
61962;SDS011;47927;42.646;23.096;2023-02-28T18:57:58;9.43;;;5.85;;
61962;SDS011;47927;42.646;23.096;2023-02-28T19:00:24;7.85;;;5.93;;
61962;SDS011;47927;42.646;23.096;2023-02-28T19:02:50;10.20;;;6.90;;
61962;SDS011;47927;42.646;23.096;2023-02-28T19:05:17;11.15;;;7.05;;
61962;SDS011;47927;42.646;23.096;2023-02-28T19:07:43;11.55;;;7.10;;
61962;SDS011;47927;42.646;23.096;2023-02-28T19:10:09;12.85;;;7.20;;
61962;SDS011;47927;42.646;23.096;2023-02-28T19:12:36;13.30;;;6.35;;
61962;SDS011;47927;42.646;23.096;2023-02-28T19:15:03;10.50;;;6.45;;
61962;SDS011;47927;42.646;23.096;2023-02-28T19:17:30;8.20;;;6.18;;
61962;SDS011;47927;42.646;23.096;2023-02-28T19:19:56;11.65;;;6.13;;
61962;SDS011;47927;42.646;23.096;2023-02-28T19:22:22;12.07;;;6.10;;
61962;SDS011;47927;42.646;23.096;2023-02-28T19:24:48;11.93;;;6.22;;
61962;SDS011;47927;42.646;23.096;2023-02-28T19:27:17;6.38;;;3.88;;
61962;SDS011;47927;42.646;23.096;2023-02-28T19:29:49;8.60;;;4.43;;
61962;SDS011;47927;42.646;23.096;2023-02-28T19:32:16;8.38;;;4.80;;
61962;SDS011;47927;42.646;23.096;2023-02-28T19:34:43;7.75;;;4.50;;
61962;SDS011;47927;42.646;23.096;2023-02-28T19:37:10;6.65;;;3.15;;
61962;SDS011;47927;42.646;23.096;2023-02-28T19:39:35;7.78;;;4.78;;
61962;SDS011;47927;42.646;23.096;2023-02-28T19:42:14;7.15;;;3.35;;
61962;SDS011;47927;42.646;23.096;2023-02-28T19:44:41;8.07;;;4.13;;
61962;SDS011;47927;42.646;23.096;2023-02-28T19:47:08;8.05;;;4.18;;
61962;SDS011;47927;42.646;23.096;2023-02-28T19:49:34;7.10;;;4.10;;
61962;SDS011;47927;42.646;23.096;2023-02-28T19:51:59;5.63;;;3.25;;
61962;SDS011;47927;42.646;23.096;2023-02-28T19:54:25;7.40;;;4.30;;
61962;SDS011;47927;42.646;23.096;2023-02-28T19:56:51;4.82;;;3.13;;
61962;SDS011;47927;42.646;23.096;2023-02-28T20:01:50;5.63;;;3.65;;
61962;SDS011;47927;42.646;23.096;2023-02-28T20:04:20;9.77;;;4.68;;
61962;SDS011;47927;42.646;23.096;2023-02-28T20:06:47;8.75;;;3.95;;
61962;SDS011;47927;42.646;23.096;2023-02-28T20:09:12;6.47;;;3.85;;
61962;SDS011;47927;42.646;23.096;2023-02-28T20:11:38;11.45;;;3.97;;
61962;SDS011;47927;42.646;23.096;2023-02-28T20:14:03;7.60;;;4.53;;
61962;SDS011;47927;42.646;23.096;2023-02-28T20:16:29;6.32;;;3.38;;
61962;SDS011;47927;42.646;23.096;2023-02-28T20:18:55;7.05;;;4.10;;
61962;SDS011;47927;42.646;23.096;2023-02-28T20:21:21;4.95;;;3.30;;
61962;SDS011;47927;42.646;23.096;2023-02-28T20:23:47;6.78;;;3.95;;
61962;SDS011;47927;42.646;23.096;2023-02-28T20:26:13;4.88;;;2.92;;
61962;SDS011;47927;42.646;23.096;2023-02-28T20:28:40;6.90;;;3.90;;
61962;SDS011;47927;42.646;23.096;2023-02-28T20:31:11;6.80;;;3.40;;
61962;SDS011;47927;42.646;23.096;2023-02-28T20:33:39;6.47;;;4.00;;
61962;SDS011;47927;42.646;23.096;2023-02-28T20:36:05;6.53;;;4.05;;
61962;SDS011;47927;42.646;23.096;2023-02-28T20:38:32;6.32;;;4.03;;
61962;SDS011;47927;42.646;23.096;2023-02-28T20:41:00;6.65;;;4.03;;
61962;SDS011;47927;42.646;23.096;2023-02-28T20:43:26;7.78;;;3.53;;
61962;SDS011;47927;42.646;23.096;2023-02-28T20:45:52;6.20;;;3.47;;
61962;SDS011;47927;42.646;23.096;2023-02-28T20:48:21;9.02;;;5.22;;
61962;SDS011;47927;42.646;23.096;2023-02-28T20:50:50;8.75;;;4.30;;
61962;SDS011;47927;42.646;23.096;2023-02-28T20:53:17;8.25;;;4.53;;
61962;SDS011;47927;42.646;23.096;2023-02-28T20:55:52;7.38;;;4.90;;
61962;SDS011;47927;42.646;23.096;2023-02-28T20:58:41;8.43;;;4.97;;
61962;SDS011;47927;42.646;23.096;2023-02-28T21:01:09;8.00;;;4.93;;
61962;SDS011;47927;42.646;23.096;2023-02-28T21:03:40;8.35;;;5.15;;
61962;SDS011;47927;42.646;23.096;2023-02-28T21:08:36;6.95;;;4.63;;
61962;SDS011;47927;42.646;23.096;2023-02-28T21:11:05;7.32;;;4.20;;
61962;SDS011;47927;42.646;23.096;2023-02-28T21:16:02;8.85;;;5.00;;
61962;SDS011;47927;42.646;23.096;2023-02-28T21:18:35;8.68;;;4.78;;
61962;SDS011;47927;42.646;23.096;2023-02-28T21:21:05;8.57;;;5.15;;
61962;SDS011;47927;42.646;23.096;2023-02-28T21:23:32;10.45;;;5.47;;
61962;SDS011;47927;42.646;23.096;2023-02-28T21:26:04;7.93;;;5.00;;